Aérodrome :







RETROUVEZ-NOUS SUR...

 
LOGIN :

S'inscrire | Disclaimer

   EN    FR    IT 

 









Légende :    VFR   VFR Marginal   IFR   IFR Intensif   IFR Très Intensif
Visi : 
Plafond : 
>= 8 km
>= 3000ft
5 à 8 km
1000 à 3000 ft
1500m à 5 km
500 à 1000 ft
800 à 1500m
200 à 500 ft
< 800m
< 200 ft
Symboles :   Orages  Brouillard  Fortes neiges  Fortes précipitations  Vent > 20 kt






- Altitude de l'aérodrome : 1161 ft


KBML - Berlin Regional

DERNIER METAR :
  • 090416Z AUTO 00000KT 1/4SM FG OVC003 16/15 A2999 RMK AO2 T01610150 $

METARs EXPIRÉS :
  • 090356Z AUTO 00000KT 1 1/2SM BR OVC004 16/14 A2999 RMK AO2 T01560144 $
  • 090331Z AUTO 00000KT 3/4SM BR OVC002 16/15 A2998 RMK AO2 T01610150 $
  • 090322Z AUTO 09003KT 1 1/4SM BR OVC002 16/15 A2998 RMK AO2 T01610150 $
  • 090318Z AUTO 08003KT 2SM BR OVC002 16/15 A2998 RMK AO2 T01610150 $
  • 090252Z AUTO 00000KT 1/4SM FG OVC002 15/14 A2998 RMK AO2 SLP150 T01500139 51006
  • 090247Z AUTO 00000KT 3/4SM BR OVC002 16/14 A2998 RMK AO2
  • 090218Z AUTO 00000KT 9SM BKN001 16/14 A2997 RMK AO2 T01560144
  • 090152Z AUTO 00000KT 6SM BR SCT002 16/16 A2998 RMK AO2 SLP148 T01610156
  • 090147Z AUTO 00000KT 10SM SCT002 17/16 A2998 RMK AO2
  • 090136Z AUTO 00000KT 8SM BKN003 17/16 A2998 RMK AO2 T01670156
  • 090127Z AUTO 00000KT 10SM SCT001 17/16 A2997 RMK AO2 T01670156

TAF N/A
FIR KZBW / Amérique du Nord



MET'MAP, la Météo Aéronautique d'un coup d'oeil ! - Copyright ORBIFLY Décembre 2007 - Disclaimer

ORBIFLY MET'MAP TEAM :

Programmation & Développement : Alexandra Zaïnal
Sur une idée originale de : Baudouin d'Aumeries
Assistance à la programmation : Marc-Olivier Méhu
Soutien technique & logistique : Manuel Goepfert

Contact : metmap@orbifly.com




SOURCES & CREDITS :

   NOAA